DW5868 Weather Reports


time (UTC)temp
C
wind
direction
speed
KPH
gust
KPH
rain 1hr
cm
rain 24hr
cm
rain mn
cm
humidity
%
barometer
mb
20220627213048 25 213 6.4 22.5 0.00 0.00 0.00 17 1011.2
20220627211544 25 323 4.8 33.8 0.00 0.00 0.00 18 1011.2
20220627210024 24 268 8.0 35.4 0.00 0.00 0.00 17 1011.5
20220627204523 25 265 4.8 22.5 0.00 0.00 0.00 18 1011.5
20220627203002 24 82 11.3 37.0 0.00 0.00 0.00 17 1011.6
20220627201505 23 338 11.3 27.4 0.00 0.00 0.00 18 1011.7
20220627200044 23 245 14.5 35.4 0.00 0.00 0.00 17 1011.9
20220627194543 24 238 4.8 25.7 0.00 0.00 0.00 18 1011.8
20220627193024 24 286 9.7 24.1 0.00 0.00 0.00 17 1011.8
20220627191525 24 285 12.9 30.6 0.00 0.00 0.00 18 1011.8
20220627190015 24 284 8.0 20.9 0.00 0.00 0.00 17 1011.8
20220627184506 25 236 4.8 20.9 0.00 0.00 0.00 18 1011.8
20220627183047 23 268 6.4 17.7 0.00 0.00 0.00 18 1011.7
20220627181546 24 287 4.8 11.3 0.00 0.00 0.00 18 1011.7
20220627180027 23 227 3.2 14.5 0.00 0.00 0.00 19 1011.8
20220627174525 23 240 1.6 16.1 0.00 0.00 0.00 19 1011.9
20220627173008 23 130 3.2 16.1 0.00 0.00 0.00 20 1012.1
20220627171507 23 257 6.4 19.3 0.00 0.00 0.00 19 1012.2
20220627170105 23 248 3.2 12.9 0.00 0.00 0.00 21 1012.2
20220627164546 22 287 9.7 20.9 0.00 0.00 0.00 18 1012.3
20220627163049 22 302 3.2 19.3 0.00 0.00 0.00 20 1012.4
20220627161527 22 304 6.4 14.5 0.00 0.00 0.00 20 1012.4
20220627160029 22 191 3.2 11.3 0.00 0.00 0.00 21 1012.2
20220627154506 21 306 6.4 16.1 0.00 0.00 0.00 21 1012.2
20220627153004 21 280 3.2 17.7 0.00 0.00 0.00 22 1012.1
20220627151547 21 312 1.6 8.0 0.00 0.00 0.00 23 1012.2
20220627150043 21 145 0.0 4.8 0.00 0.00 0.00 30 1012.1
20220627144526 18 84 4.8 8.0 0.00 0.00 0.00 35 1012.0
20220627143030 20 132 0.0 9.7 0.00 0.00 0.00 29 1012.1
20220627141503 20 265 0.0 6.4 0.00 0.00 0.00 27 1012.1
20220627140112 18 255 1.6 8.0 0.00 0.00 0.00 30 1012.1
20220627134538 17 265 1.6 11.3 0.00 0.00 0.00 29 1012.1
20220627133046 17 284 8.0 19.3 0.00 0.00 0.00 28 1012.0
20220627131521 16 263 1.6 22.5 0.00 0.00 0.00 32 1012.0
20220627130026 15 264 4.8 16.1 0.00 0.00 0.00 32 1012.0
20220627124520 12 290 4.8 14.5 0.00 0.00 0.00 38 1011.9
20220627123019 13 277 1.6 8.0 0.00 0.00 0.00 41 1011.8
20220627121518 13 276 0.0 6.4 0.00 0.00 0.00 39 1012.0
20220627120020 13 100 0.0 4.8 0.00 0.00 0.00 39 1011.8
20220627114517 14 227 3.2 9.7 0.00 0.00 0.00 35 1011.9
20220627113025 14 275 3.2 11.3 0.00 0.00 0.00 36 1011.9
20220627111558 13 268 1.6 6.4 0.00 0.00 0.00 41 1012.0
20220627110057 13 264 3.2 11.3 0.00 0.00 0.00 41 1012.1
20220627104537 13 259 0.0 3.2 0.00 0.00 0.00 43 1012.2
20220627103034 13 76 1.6 3.2 0.00 0.00 0.00 41 1012.3
20220627101520 13 322 0.0 3.2 0.00 0.00 0.00 41 1012.3
20220627100025 14 47 0.0 3.2 0.00 0.00 0.00 38 1012.4
20220627094514 15 84 0.0 8.0 0.00 0.00 0.00 36 1012.5
20220627093012 16 263 3.2 14.5 0.00 0.00 0.00 32 1012.5
20220627091509 16 256 1.6 16.1 0.00 0.00 0.00 31 1012.7
20220627090011 16 233 3.2 17.7 0.00 0.00 0.00 30 1012.7
20220627084506 16 241 4.8 16.1 0.00 0.00 0.00 31 1012.8
20220627083012 16 157 1.6 19.3 0.00 0.00 0.00 31 1012.8
20220627081602 16 254 3.2 14.5 0.00 0.00 0.00 31 1012.8
20220627080046 16 264 4.8 16.1 0.00 0.00 0.00 31 1012.8
20220627074527 16 257 8.0 22.5 0.00 0.00 0.00 31 1012.8
20220627073029 16 250 8.0 22.5 0.00 0.00 0.00 31 1013.0
20220627071506 16 287 4.8 16.1 0.00 0.00 0.00 32 1013.0
20220627070004 16 275 4.8 16.1 0.00 0.00 0.00 31 1013.2
20220627064553 16 276 6.4 19.3 0.00 0.00 0.00 31 1013.3
20220627063050 16 178 3.2 17.7 0.00 0.00 0.00 31 1013.6
20220627061550 16 272 9.7 20.9 0.00 0.00 0.00 31 1013.6
20220627060049 16 242 8.0 16.1 0.00 0.00 0.00 30 1013.7
20220627054549 17 279 9.7 25.7 0.00 0.00 0.00 30 1013.6
20220627053047 17 132 9.7 20.9 0.00 0.00 0.00 30 1013.6
20220627051551 17 252 9.7 19.3 0.00 0.00 0.00 29 1013.4
20220627050059 17 199 8.0 17.7 0.00 0.00 0.00 29 1013.4
20220627044530 17 275 8.0 20.9 0.00 0.00 0.00 29 1013.3
20220627043029 17 263 6.4 14.5 0.00 0.00 0.00 28 1013.3
20220627041511 17 285 6.4 17.7 0.00 0.00 0.00 28 1013.1
20220627040014 18 252 8.0 17.7 0.00 0.00 0.00 27 1013.0
20220627034553 18 175 8.0 19.3 0.00 0.00 0.00 27 1012.9
20220627033054 18 286 6.4 19.3 0.00 0.00 0.00 27 1012.8
20220627031534 18 253 6.4 12.9 0.00 0.00 0.00 26 1012.8
20220627030034 18 240 6.4 12.9 0.00 0.00 0.00 26 1012.8
20220627024525 19 227 4.8 12.9 0.00 0.00 0.00 25 1012.7
20220627023021 20 268 8.0 22.5 0.00 0.00 0.00 24 1012.6
20220627021526 21 176 6.4 19.3 0.00 0.00 0.00 22 1012.5
20220627020020 22 259 4.8 19.3 0.00 0.00 0.00 22 1012.5
20220627014518 22 311 4.8 16.1 0.00 0.00 0.00 22 1012.4
20220627013018 22 269 4.8 16.1 0.00 0.00 0.00 23 1012.3
20220627011518 23 211 4.8 20.9 0.00 0.00 0.00 23 1012.2
20220627010019 23 268 9.7 24.1 0.00 0.00 0.00 22 1012.1
20220627004606 23 281 6.4 20.9 0.00 0.00 0.00 22 1012.3
20220627003100 23 209 8.0 24.1 0.00 0.00 0.00 22 1012.4
20220627001547 23 233 6.4 17.7 0.00 0.00 0.00 21 1012.4
20220627000035 23 218 9.7 22.5 0.00 0.00 0.00 21 1012.7
20220626234517 23 260 6.4 19.3 0.00 0.00 0.00 21 1012.8
20220626233016 24 226 9.7 19.3 0.00 0.00 0.00 20 1012.9
20220626231558 24 226 8.0 25.7 0.00 0.00 0.00 20 1012.8
20220626230058 24 257 6.4 25.7 0.00 0.00 0.00 20 1012.9
20220626224538 25 205 4.8 22.5 0.00 0.03 0.00 21 1013.0
20220626223050 25 286 4.8 20.9 0.00 0.03 0.00 21 1013.1
20220626221520 25 286 4.8 20.9 0.00 0.03 0.00 21 1013.2
20220626220019 24 285 6.4 25.7 0.00 0.03 0.00 21 1013.3
20220626214503 25 223 8.0 19.3 0.00 0.03 0.00 20 1013.6